Terminal Aerodrome Forecast
Issued by NWS

Home | Current Version | Previous Version | Text Only | Print | Product List | Glossary Off
Versions: 1 2 3 4 5 6 7 8 9 10 11 12 13 14 15 16 17 18 19 20 21 22

000
FTUS45 KGGW 251720
TAFOLF
TAF
KOLF 251720Z 2518/2618 07011KT P6SM BKN028
      TEMPO 2519/2522 BKN035
     FM252200 07010KT P6SM SCT040
     FM260200 08008KT P6SM BKN060=

USA.gov is the U.S. government's official web portal to all federal, state and local government web resources and services.